createdAt,value
2017-12-01T00:02:25.584Z,15.30
2017-12-01T00:04:53.118Z,14.52
2017-12-01T00:07:21.430Z,13.65
2017-12-01T00:09:48.951Z,17.12
2017-12-01T00:12:17.259Z,14.48
2017-12-01T00:14:44.783Z,16.80
2017-12-01T00:17:13.087Z,15.05
2017-12-01T00:19:40.611Z,14.65
2017-12-01T00:22:08.147Z,15.77
2017-12-01T00:24:35.674Z,16.23
2017-12-01T00:27:03.220Z,14.70
2017-12-01T00:29:30.746Z,15.38
2017-12-01T00:31:58.296Z,14.20
2017-12-01T00:34:25.819Z,15.00
2017-12-01T00:36:53.358Z,13.13
2017-12-01T00:39:20.880Z,13.15
2017-12-01T00:41:48.422Z,13.98
2017-12-01T00:44:15.937Z,15.27
2017-12-01T00:46:43.478Z,16.17
2017-12-01T00:49:11.766Z,16.67
2017-12-01T00:51:40.071Z,15.07
2017-12-01T00:54:07.599Z,14.55
2017-12-01T00:56:35.912Z,13.45
2017-12-01T00:59:03.444Z,13.85
2017-12-01T01:01:31.747Z,15.13
2017-12-01T01:03:59.271Z,15.50
2017-12-01T01:06:27.577Z,14.60
2017-12-01T01:08:55.103Z,14.57
2017-12-01T01:11:22.638Z,13.48
2017-12-01T01:13:50.162Z,15.50
2017-12-01T01:16:17.714Z,14.48
2017-12-01T01:18:45.237Z,15.75
2017-12-01T01:21:12.841Z,14.15
2017-12-01T01:23:40.373Z,14.60
2017-12-01T01:26:08.670Z,13.18
2017-12-01T01:28:36.218Z,13.95
2017-12-01T01:31:03.737Z,14.57
2017-12-01T01:33:31.286Z,12.75
2017-12-01T01:35:58.818Z,13.35
2017-12-01T01:38:26.358Z,14.05
2017-12-01T01:40:54.649Z,14.05
2017-12-01T01:43:22.198Z,13.98
2017-12-01T01:45:50.487Z,14.32
2017-12-01T01:48:18.030Z,12.35
2017-12-01T01:50:46.320Z,12.30
2017-12-01T01:53:14.627Z,11.73
2017-12-01T01:55:42.142Z,12.35
2017-12-01T01:58:09.706Z,11.45
2017-12-01T02:00:37.221Z,9.85
2017-12-01T02:03:04.746Z,11.25
2017-12-01T02:05:32.287Z,10.35
2017-12-01T02:08:00.574Z,9.85
2017-12-01T02:10:28.886Z,11.20
2017-12-01T02:12:56.402Z,10.73
2017-12-01T02:15:24.714Z,9.45
2017-12-01T02:17:52.237Z,9.80
2017-12-01T02:20:20.551Z,9.50
2017-12-01T02:22:48.070Z,8.02
2017-12-01T02:25:15.614Z,8.68
2017-12-01T02:27:43.140Z,11.05
2017-12-01T02:30:10.669Z,10.45
2017-12-01T02:32:44.567Z,10.10
2017-12-01T02:35:12.859Z,9.35
2017-12-01T02:37:41.164Z,9.05
2017-12-01T02:40:08.695Z,9.25
2017-12-01T02:42:36.246Z,8.25
2017-12-01T02:45:04.526Z,7.90
2017-12-01T02:47:32.837Z,8.80
2017-12-01T02:50:00.358Z,10.43
2017-12-01T02:52:28.675Z,9.40
2017-12-01T02:54:56.197Z,9.70
2017-12-01T02:57:24.509Z,8.82
2017-12-01T02:59:52.030Z,7.25
2017-12-01T03:02:19.567Z,9.30
2017-12-01T03:04:47.087Z,8.57
2017-12-01T03:07:14.626Z,8.02
2017-12-01T03:09:42.910Z,8.32
2017-12-01T03:12:11.230Z,7.97
2017-12-01T03:14:38.778Z,8.20
2017-12-01T03:17:06.322Z,8.55
2017-12-01T03:19:33.842Z,7.32
2017-12-01T03:22:01.382Z,8.88
2017-12-01T03:24:28.902Z,9.18
2017-12-01T03:26:56.452Z,9.55
2017-12-01T03:29:23.981Z,8.07
2017-12-01T03:31:51.522Z,8.98
2017-12-01T03:34:19.052Z,8.85
2017-12-01T03:36:46.594Z,9.05
2017-12-01T03:39:14.116Z,9.20
2017-12-01T03:41:41.666Z,10.18
2017-12-01T03:44:09.191Z,8.88
2017-12-01T03:46:36.729Z,8.43
2017-12-01T03:49:05.019Z,8.70
2017-12-01T03:51:32.551Z,10.30
2017-12-01T03:54:00.092Z,8.73
2017-12-01T03:56:27.615Z,8.65
2017-12-01T03:58:55.155Z,9.35
2017-12-01T04:01:23.443Z,8.07
2017-12-01T04:03:50.990Z,9.13
2017-12-01T04:06:19.280Z,8.25
2017-12-01T04:08:46.819Z,7.07
2017-12-01T04:11:15.105Z,7.97
2017-12-01T04:13:43.407Z,8.02
2017-12-01T04:16:10.951Z,6.87
2017-12-01T04:18:38.500Z,7.57
2017-12-01T04:21:06.794Z,7.10
2017-12-01T04:23:34.329Z,8.10
2017-12-01T04:26:01.847Z,8.75
2017-12-01T04:28:29.395Z,8.85
2017-12-01T04:30:56.919Z,7.10
2017-12-01T04:33:25.222Z,7.87
2017-12-01T04:35:52.747Z,8.00
2017-12-01T04:38:20.288Z,7.32
2017-12-01T04:40:47.803Z,6.12
2017-12-01T04:43:15.364Z,7.37
2017-12-01T04:45:42.883Z,5.85
2017-12-01T04:48:10.406Z,6.30
2017-12-01T04:50:37.948Z,8.35
2017-12-01T04:53:05.470Z,8.32
2017-12-01T04:55:33.003Z,7.07
2017-12-01T04:58:00.531Z,7.45
2017-12-01T05:00:28.060Z,7.43
2017-12-01T05:02:55.587Z,8.02
2017-12-01T05:05:23.126Z,8.32
2017-12-01T05:07:50.652Z,9.50
2017-12-01T05:10:18.955Z,9.60
2017-12-01T05:12:46.480Z,10.50
2017-12-01T05:15:14.039Z,11.10
2017-12-01T05:17:41.566Z,10.73
2017-12-01T05:20:09.086Z,10.68
2017-12-01T05:22:37.434Z,9.73
2017-12-01T05:25:04.960Z,8.75
2017-12-01T05:27:32.540Z,8.60
2017-12-01T05:30:00.071Z,9.75
2017-12-01T05:32:27.618Z,9.05
2017-12-01T05:34:55.144Z,9.27
2017-12-01T05:37:22.678Z,8.88
2017-12-01T05:39:50.203Z,9.10
2017-12-01T05:42:17.754Z,11.30
2017-12-01T05:44:45.279Z,11.27
2017-12-01T05:47:12.830Z,12.30
2017-12-01T05:49:40.355Z,10.45
2017-12-01T05:52:07.894Z,11.27
2017-12-01T05:54:35.420Z,11.80
2017-12-01T05:57:02.963Z,10.90
2017-12-01T05:59:30.493Z,10.93
2017-12-01T06:01:58.059Z,10.50
2017-12-01T06:04:25.583Z,8.85
2017-12-01T06:06:53.877Z,10.38
2017-12-01T06:09:21.422Z,9.77
2017-12-01T06:11:49.712Z,8.30
2017-12-01T06:14:17.251Z,8.82
2017-12-01T06:16:44.771Z,7.47
2017-12-01T06:19:12.311Z,8.27
2017-12-01T06:21:39.833Z,8.63
2017-12-01T06:24:07.363Z,17.00
2017-12-01T06:26:34.906Z,16.12
2017-12-01T06:29:02.435Z,12.98
2017-12-01T06:31:29.982Z,10.82
2017-12-01T06:33:58.271Z,14.05
2017-12-01T06:36:25.815Z,10.52
2017-12-01T06:38:54.113Z,10.88
2017-12-01T06:41:21.674Z,10.65
2017-12-01T06:43:49.204Z,14.55
2017-12-01T06:46:16.735Z,15.25
2017-12-01T06:48:44.285Z,13.77
2017-12-01T06:51:11.823Z,12.68
2017-12-01T06:53:39.370Z,12.75
2017-12-01T06:56:06.899Z,10.73
2017-12-01T06:58:34.445Z,12.15
2017-12-01T07:01:01.978Z,11.73
2017-12-01T07:03:29.526Z,11.57
2017-12-01T07:05:57.055Z,18.10
2017-12-01T07:08:25.374Z,13.80
2017-12-01T07:10:52.902Z,18.45
2017-12-01T07:13:21.216Z,16.20
2017-12-01T07:15:48.740Z,15.43
2017-12-01T07:18:17.059Z,14.65
2017-12-01T07:20:44.582Z,15.65
2017-12-01T07:23:12.895Z,13.62
2017-12-01T07:25:40.429Z,17.85
2017-12-01T07:28:08.743Z,22.00
2017-12-01T07:30:36.266Z,19.45
2017-12-01T07:33:04.575Z,16.65
2017-12-01T07:35:32.094Z,17.48
2017-12-01T07:37:59.642Z,17.35
2017-12-01T07:40:27.165Z,18.67
2017-12-01T07:42:54.714Z,14.80
2017-12-01T07:45:26.083Z,16.83
2017-12-01T07:47:53.608Z,15.60
2017-12-01T07:50:21.920Z,14.55
2017-12-01T07:52:49.444Z,14.55
2017-12-01T07:55:17.755Z,12.32
2017-12-01T07:57:45.283Z,17.65
2017-12-01T08:00:13.585Z,16.77
2017-12-01T08:02:41.106Z,13.45
2017-12-01T08:05:09.419Z,16.00
2017-12-01T08:07:38.526Z,14.75
2017-12-01T08:10:06.083Z,14.87
2017-12-01T08:12:33.597Z,14.68
2017-12-01T08:15:01.122Z,13.45
2017-12-01T08:17:29.527Z,12.35
2017-12-01T08:19:57.052Z,14.55
2017-12-01T08:22:36.545Z,12.82
2017-12-01T08:25:15.868Z,15.65
2017-12-01T08:27:43.413Z,13.20
2017-12-01T08:30:11.706Z,14.30
2017-12-01T08:32:39.252Z,13.68
2017-12-01T08:35:06.782Z,13.25
2017-12-01T08:37:34.326Z,16.27
2017-12-01T08:40:02.641Z,15.70
2017-12-01T08:42:30.175Z,14.85
2017-12-01T08:44:57.718Z,13.20
2017-12-01T08:47:26.010Z,14.65
2017-12-01T08:49:54.326Z,11.60
2017-12-01T08:52:21.914Z,10.98
2017-12-01T08:54:49.457Z,45.95
2017-12-01T08:57:16.974Z,16.67
2017-12-01T08:59:45.294Z,11.70
2017-12-01T09:02:12.820Z,7.43
2017-12-01T09:04:40.344Z,10.30
2017-12-01T09:07:07.890Z,10.18
2017-12-01T09:09:35.410Z,8.70
2017-12-01T09:12:02.954Z,9.55
2017-12-01T09:14:31.243Z,9.65
2017-12-01T09:16:58.799Z,10.30
2017-12-01T09:19:27.089Z,8.18
2017-12-01T09:21:54.629Z,7.87
2017-12-01T09:24:22.919Z,8.35
2017-12-01T09:26:50.458Z,6.47
2017-12-01T09:29:17.983Z,6.87
2017-12-01T09:31:45.503Z,6.22
2017-12-01T09:34:13.044Z,6.80
2017-12-01T09:36:41.331Z,6.95
2017-12-01T09:39:09.634Z,6.30
2017-12-01T09:41:37.146Z,6.75
2017-12-01T09:44:04.711Z,6.40
2017-12-01T09:46:32.228Z,6.10
2017-12-01T09:48:59.794Z,6.95
2017-12-01T09:51:27.312Z,6.95
2017-12-01T09:53:55.620Z,7.00
2017-12-01T09:56:23.134Z,6.68
2017-12-01T09:58:50.672Z,7.95
2017-12-01T10:01:18.191Z,8.95
2017-12-01T10:03:45.734Z,9.32
2017-12-01T10:06:14.022Z,7.62
2017-12-01T10:08:41.583Z,9.05
2017-12-01T10:11:09.100Z,7.78
2017-12-01T10:13:36.622Z,7.93
2017-12-01T10:16:04.161Z,7.72
2017-12-01T10:18:31.678Z,5.18
2017-12-01T10:20:59.223Z,6.87
2017-12-01T10:23:26.747Z,6.07
2017-12-01T10:25:54.286Z,7.72
2017-12-01T10:28:22.567Z,7.37
2017-12-01T10:30:50.870Z,6.78
2017-12-01T10:33:18.390Z,7.60
2017-12-01T10:35:45.939Z,8.63
2017-12-01T10:38:13.458Z,7.40
2017-12-01T10:40:41.018Z,8.43
2017-12-01T10:43:08.544Z,8.10
2017-12-01T10:45:36.836Z,7.95
2017-12-01T10:48:05.148Z,8.52
2017-12-01T10:50:32.671Z,7.32
2017-12-01T10:53:00.978Z,10.20
2017-12-01T10:55:28.505Z,9.55
2017-12-01T10:57:56.822Z,8.50
2017-12-01T11:00:24.346Z,8.00
2017-12-01T11:02:52.650Z,6.97
2017-12-01T11:05:20.175Z,8.25
2017-12-01T11:07:47.714Z,9.10
2017-12-01T11:10:15.241Z,9.60
2017-12-01T11:12:42.804Z,8.15
2017-12-01T11:15:10.326Z,8.30
2017-12-01T11:17:38.608Z,8.63
2017-12-01T11:20:06.916Z,8.82
2017-12-01T11:22:34.443Z,8.73
2017-12-01T11:25:02.748Z,9.65
2017-12-01T11:27:30.270Z,8.02
2017-12-01T11:29:57.811Z,9.45
2017-12-01T11:32:25.323Z,9.65
2017-12-01T11:34:52.887Z,9.45
2017-12-01T11:37:20.412Z,9.15
2017-12-01T11:39:47.943Z,7.85
2017-12-01T11:42:15.467Z,8.85
2017-12-01T11:44:43.004Z,7.65
2017-12-01T11:47:11.298Z,9.57
2017-12-01T11:49:38.886Z,9.10
2017-12-01T11:52:06.402Z,7.43
2017-12-01T11:54:34.715Z,8.13
2017-12-01T11:57:02.269Z,9.43
2017-12-01T11:59:29.822Z,7.53
2017-12-01T12:01:58.102Z,7.78
2017-12-01T12:04:26.403Z,8.52
2017-12-01T12:06:53.918Z,8.98
2017-12-01T12:09:21.459Z,8.63
2017-12-01T12:11:48.981Z,8.52
2017-12-01T12:14:16.523Z,8.40
2017-12-01T12:16:44.055Z,7.68
2017-12-01T12:19:11.615Z,7.32
2017-12-01T12:21:39.139Z,7.15
2017-12-01T12:24:07.474Z,6.90
2017-12-01T12:26:35.781Z,7.12
2017-12-01T12:29:03.300Z,4.95
2017-12-01T12:31:31.610Z,6.80
2017-12-01T12:33:59.138Z,6.82
2017-12-01T12:36:27.458Z,6.75
2017-12-01T12:38:54.975Z,6.47
2017-12-01T12:41:23.282Z,6.18
2017-12-01T12:43:50.811Z,7.12
2017-12-01T12:46:18.350Z,7.75
2017-12-01T12:48:45.875Z,7.47
2017-12-01T12:51:13.434Z,6.50
2017-12-01T12:53:40.958Z,7.53
2017-12-01T12:56:08.478Z,6.70
2017-12-01T12:58:36.014Z,7.07
2017-12-01T13:01:03.542Z,6.40
2017-12-01T13:03:31.079Z,6.93
2017-12-01T13:05:59.374Z,8.27
2017-12-01T13:08:26.913Z,7.15
2017-12-01T13:10:54.429Z,7.78
2017-12-01T13:13:22.743Z,6.57
2017-12-01T13:15:50.269Z,7.35
2017-12-01T13:18:18.596Z,7.05
2017-12-01T13:20:46.114Z,8.25
2017-12-01T13:23:13.639Z,6.18
2017-12-01T13:25:41.174Z,6.80
2017-12-01T13:28:08.694Z,7.15
2017-12-01T13:30:36.234Z,7.40
2017-12-01T13:33:04.516Z,6.60
2017-12-01T13:35:32.827Z,7.40
2017-12-01T13:38:00.348Z,7.32
2017-12-01T13:40:28.654Z,7.05
2017-12-01T13:42:56.170Z,6.87
2017-12-01T13:45:23.706Z,7.82
2017-12-01T13:47:51.236Z,6.87
2017-12-01T13:50:19.619Z,6.57
2017-12-01T13:52:47.137Z,6.57
2017-12-01T13:55:14.669Z,5.80
2017-12-01T13:57:42.185Z,6.15
2017-12-01T14:00:10.493Z,6.50
2017-12-01T14:02:38.019Z,5.68
2017-12-01T14:05:06.307Z,5.18
2017-12-01T14:07:34.620Z,6.78
2017-12-01T14:10:02.135Z,6.10
2017-12-01T14:12:30.450Z,6.55
2017-12-01T14:14:57.966Z,5.45
2017-12-01T14:17:26.283Z,4.40
2017-12-01T14:19:53.802Z,5.62
2017-12-01T14:22:21.342Z,6.12
2017-12-01T14:24:49.642Z,7.50
2017-12-01T14:27:17.182Z,6.70
2017-12-01T14:29:44.703Z,7.15
2017-12-01T14:32:12.249Z,7.70
2017-12-01T14:34:40.538Z,8.60
2017-12-01T14:37:08.061Z,9.07
2017-12-01T14:39:35.607Z,14.50
2017-12-01T14:42:03.125Z,11.73
2017-12-01T14:44:30.677Z,11.07
2017-12-01T14:46:58.261Z,7.43
2017-12-01T14:49:26.540Z,7.43
2017-12-01T14:51:54.058Z,6.82
2017-12-01T14:54:22.382Z,9.35
2017-12-01T14:56:49.913Z,9.80
2017-12-01T14:59:18.223Z,11.68
2017-12-01T15:01:45.738Z,9.77
2017-12-01T15:04:13.263Z,11.50
2017-12-01T15:06:40.807Z,11.48
2017-12-01T15:09:08.334Z,11.63
2017-12-01T15:11:36.639Z,11.23
2017-12-01T15:14:04.162Z,8.43
2017-12-01T15:16:31.749Z,7.45
2017-12-01T15:19:00.035Z,7.75
2017-12-01T15:21:27.579Z,7.60
2017-12-01T15:23:55.921Z,8.00
2017-12-01T15:26:24.254Z,7.70
2017-12-01T15:28:51.775Z,6.30
2017-12-01T15:31:19.301Z,7.28
2017-12-01T15:33:46.814Z,7.18
2017-12-01T15:36:15.123Z,6.35
2017-12-01T15:38:42.638Z,6.18
2017-12-01T15:41:10.179Z,7.55
2017-12-01T15:43:37.693Z,6.70
2017-12-01T15:46:05.235Z,6.70
2017-12-01T15:48:33.517Z,6.25
2017-12-01T15:51:01.827Z,6.72
2017-12-01T15:53:29.350Z,9.82
2017-12-01T15:55:57.649Z,9.25
2017-12-01T15:58:25.174Z,7.32
2017-12-01T16:00:52.710Z,6.95
2017-12-01T16:03:20.230Z,10.05
2017-12-01T16:05:47.782Z,8.40
2017-12-01T16:08:16.061Z,9.90
2017-12-01T16:10:44.372Z,8.65
2017-12-01T16:13:11.889Z,8.70
2017-12-01T16:15:40.222Z,9.35
2017-12-01T16:18:07.742Z,9.45
2017-12-01T16:20:36.050Z,10.00
2017-12-01T16:23:03.582Z,10.15
2017-12-01T16:25:31.889Z,8.25
2017-12-01T16:27:59.414Z,8.75
2017-12-01T16:30:27.715Z,6.53
2017-12-01T16:33:00.226Z,11.12
2017-12-01T16:35:23.566Z,8.40
2017-12-01T16:37:51.085Z,8.07
2017-12-01T16:40:18.625Z,8.40
2017-12-01T16:42:46.142Z,7.00
2017-12-01T16:45:13.686Z,7.60
2017-12-01T16:47:41.971Z,8.68
2017-12-01T16:50:10.283Z,10.60
2017-12-01T16:52:38.073Z,9.85
2017-12-01T16:55:05.619Z,9.80
2017-12-01T16:57:33.142Z,10.10
2017-12-01T17:00:01.463Z,9.63
2017-12-01T17:02:29.014Z,11.50
2017-12-01T17:04:56.743Z,10.73
2017-12-01T17:07:25.050Z,10.73
2017-12-01T17:09:52.579Z,10.77
2017-12-01T17:12:20.130Z,9.65
2017-12-01T17:14:48.421Z,10.65
2017-12-01T17:17:16.732Z,8.75
2017-12-01T17:19:44.259Z,8.45
2017-12-01T17:22:12.568Z,9.82
2017-12-01T17:24:40.099Z,9.55
2017-12-01T17:27:07.643Z,11.52
2017-12-01T17:29:35.933Z,11.77
2017-12-01T17:32:04.243Z,11.35
2017-12-01T17:34:31.766Z,10.00
2017-12-01T17:37:00.071Z,11.18
2017-12-01T17:39:27.599Z,11.48
2017-12-01T17:41:55.918Z,12.88
2017-12-01T17:44:23.447Z,10.50
2017-12-01T17:46:51.746Z,9.13
2017-12-01T17:49:19.271Z,7.90
2017-12-01T17:51:47.597Z,10.85
2017-12-01T17:54:15.120Z,11.68
2017-12-01T17:56:43.410Z,13.38
2017-12-01T17:59:10.959Z,11.60
2017-12-01T18:01:39.275Z,11.95
2017-12-01T18:06:56.698Z,10.25
2017-12-01T18:09:24.570Z,11.00
2017-12-01T18:11:52.344Z,11.07
2017-12-01T18:14:20.059Z,10.40
2017-12-01T18:19:47.648Z,9.10
2017-12-01T18:25:37.619Z,9.48
2017-12-01T18:28:05.319Z,11.95
2017-12-01T18:30:33.066Z,10.60
2017-12-01T18:33:00.590Z,11.55
2017-12-01T18:35:28.134Z,11.25
2017-12-01T18:37:55.666Z,10.68
2017-12-01T18:40:23.982Z,11.88
2017-12-01T18:42:51.502Z,9.88
2017-12-01T18:45:19.051Z,10.48
2017-12-01T18:47:46.606Z,12.48
2017-12-01T18:50:14.126Z,12.52
2017-12-01T18:52:41.674Z,10.40
2017-12-01T18:55:09.203Z,12.75
2017-12-01T18:57:36.751Z,14.00
2017-12-01T19:00:04.275Z,13.40
2017-12-01T19:02:31.824Z,12.15
2017-12-01T19:04:59.351Z,12.23
2017-12-01T19:07:26.894Z,15.75
2017-12-01T19:09:54.422Z,16.33
2017-12-01T19:12:21.970Z,17.77
2017-12-01T19:14:49.498Z,16.42
2017-12-01T19:17:17.046Z,14.77
2017-12-01T19:19:44.584Z,14.02
2017-12-01T19:22:12.134Z,12.27
2017-12-01T19:24:39.658Z,14.10
2017-12-01T19:27:07.973Z,15.15
2017-12-01T19:29:35.498Z,12.77
2017-12-01T19:32:03.867Z,13.43
2017-12-01T19:34:31.396Z,13.60
2017-12-01T19:36:58.939Z,13.85
2017-12-01T19:39:26.470Z,13.57
2017-12-01T19:41:54.777Z,16.70
2017-12-01T19:44:22.352Z,17.45
2017-12-01T19:46:49.901Z,14.32
2017-12-01T19:49:17.435Z,16.90
2017-12-01T19:51:45.746Z,16.50
2017-12-01T19:54:13.274Z,16.40
2017-12-01T19:56:41.570Z,17.40
2017-12-01T19:59:09.115Z,14.87
2017-12-01T20:01:37.408Z,15.23
2017-12-01T20:04:04.954Z,13.88
2017-12-01T20:06:33.248Z,17.35
2017-12-01T20:09:00.793Z,15.52
2017-12-01T20:11:29.087Z,17.75
2017-12-01T20:13:56.642Z,17.48
2017-12-01T20:16:24.166Z,18.73
2017-12-01T20:18:51.712Z,14.93
2017-12-01T20:21:19.235Z,18.52
2017-12-01T20:23:46.773Z,16.42
2017-12-01T20:26:15.079Z,16.60
2017-12-01T20:28:42.668Z,15.32
2017-12-01T20:31:10.238Z,13.38
2017-12-01T20:33:37.782Z,17.73
2017-12-01T20:36:05.306Z,14.32
2017-12-01T20:38:32.846Z,13.30
2017-12-01T20:41:00.389Z,11.43
2017-12-01T20:43:27.914Z,15.07
2017-12-01T20:45:55.458Z,17.50
2017-12-01T20:48:22.981Z,32.92
2017-12-01T20:50:50.521Z,36.20
2017-12-01T20:53:18.045Z,34.10
2017-12-01T20:55:45.595Z,25.98
2017-12-01T20:58:13.123Z,24.15
2017-12-01T21:00:40.713Z,25.48
2017-12-01T21:03:09.039Z,22.30
2017-12-01T21:05:36.589Z,20.12
2017-12-01T21:08:04.160Z,17.87
2017-12-01T21:10:31.702Z,16.62
2017-12-01T21:12:59.226Z,15.68
2017-12-01T21:15:27.544Z,14.30
2017-12-01T21:17:55.066Z,15.50
2017-12-01T21:20:23.377Z,15.48
2017-12-01T21:22:50.906Z,17.12
2017-12-01T21:25:19.235Z,12.68
2017-12-01T21:27:46.763Z,20.92
2017-12-01T21:30:14.287Z,17.48
2017-12-01T21:32:41.855Z,20.23
2017-12-01T21:35:09.378Z,20.95
2017-12-01T21:37:36.922Z,19.55
2017-12-01T21:40:04.447Z,18.10
2017-12-01T21:42:32.763Z,16.85
2017-12-01T21:45:00.327Z,16.75
2017-12-01T21:47:27.875Z,16.70
2017-12-01T21:49:55.405Z,13.52
2017-12-01T21:52:23.714Z,14.87
2017-12-01T21:54:51.241Z,15.52
2017-12-01T21:57:19.551Z,18.87
2017-12-01T21:59:47.080Z,18.85
2017-12-01T22:02:15.415Z,18.90
2017-12-01T22:04:42.939Z,17.90
2017-12-01T22:07:10.465Z,19.40
2017-12-01T22:09:38.086Z,18.98
2017-12-01T22:12:05.611Z,19.25
2017-12-01T22:14:33.923Z,18.37
2017-12-01T22:17:01.446Z,19.75
2017-12-01T22:19:29.758Z,16.75
2017-12-01T22:21:57.282Z,13.55
2017-12-01T22:24:25.594Z,18.00
2017-12-01T22:26:53.123Z,18.10
2017-12-01T22:29:21.425Z,18.23
2017-12-01T22:31:48.951Z,17.05
2017-12-01T22:34:16.490Z,17.92
2017-12-01T22:36:44.068Z,16.08
2017-12-01T22:39:11.598Z,15.30
2017-12-01T22:41:39.124Z,16.87
2017-12-01T22:44:07.553Z,13.05
2017-12-01T22:46:35.099Z,11.77
2017-12-01T22:49:02.632Z,18.55
2017-12-01T22:51:30.185Z,14.77
2017-12-01T22:53:58.475Z,12.27
2017-12-01T22:56:26.018Z,15.07
2017-12-01T22:58:54.305Z,14.75
2017-12-01T23:01:22.615Z,14.00
2017-12-01T23:03:50.137Z,15.55
2017-12-01T23:06:18.444Z,15.13
2017-12-01T23:08:45.970Z,13.85
2017-12-01T23:11:14.281Z,13.25
2017-12-01T23:13:41.806Z,16.15
2017-12-01T23:16:10.119Z,14.45
2017-12-01T23:18:37.642Z,15.10
2017-12-01T23:21:05.187Z,14.65
2017-12-01T23:23:32.715Z,20.85
2017-12-01T23:26:00.268Z,16.90
2017-12-01T23:28:27.810Z,18.70
2017-12-01T23:30:55.354Z,19.45
2017-12-01T23:33:23.643Z,15.43
2017-12-01T23:35:51.174Z,18.27
2017-12-01T23:38:18.720Z,18.20
2017-12-01T23:40:46.241Z,16.58
2017-12-01T23:43:13.786Z,15.77
2017-12-01T23:45:42.073Z,17.85
2017-12-01T23:48:09.619Z,15.77
2017-12-01T23:50:37.907Z,14.90
2017-12-01T23:53:06.216Z,12.80
2017-12-01T23:55:33.738Z,13.60
2017-12-01T23:58:02.054Z,12.48
